Weather at Buochs Airport

Public forecast

Using degrees Celsius for public forecast. Weather courtesy of forecast.io.

Current aviation weather report (METAR) for Buochs Airport

Retrieved 2020/10/25 15:20 UTC (23 minutes ago):

LSZC 251520Z AUTO VRB03KT CAVOK 14/08 Q1008

Closest aviation forecast (TAF) to Buochs Airport

Closest forecast is Alpnach Air Base, 5.0 nm (9.2 km) WSW. Retrieved 2020/10/25 10:00 UTC (6 hours ago):

TAF LSMA 250925Z 2510/2616 VRB03KT CAVOK PROB30 TEMPO 2510/2512 FEW003 BECMG 2521/2524 9999 FEW050 BKN100 TEMPO 2604/2616 RA PROB30 TEMPO 2608/2616 5000 BKN012 PROB30 TEMPO 2609/2613 01015G25KT